sensor_id;sensor_type;location;lat;lon;timestamp;temperature;humidity
17385;DHT22;8810;48.680;8.894;2022-12-07T00:00:44;3.10;99.90
17385;DHT22;8810;48.680;8.894;2022-12-07T00:03:11;3.10;99.90
17385;DHT22;8810;48.680;8.894;2022-12-07T00:05:38;3.10;99.90
17385;DHT22;8810;48.680;8.894;2022-12-07T00:08:06;3.10;99.90
17385;DHT22;8810;48.680;8.894;2022-12-07T00:10:33;3.10;99.90
17385;DHT22;8810;48.680;8.894;2022-12-07T00:13:00;3.10;99.90
17385;DHT22;8810;48.680;8.894;2022-12-07T00:15:27;3.10;99.90
17385;DHT22;8810;48.680;8.894;2022-12-07T00:17:54;3.10;99.90
17385;DHT22;8810;48.680;8.894;2022-12-07T00:20:21;3.10;99.90
17385;DHT22;8810;48.680;8.894;2022-12-07T00:22:49;3.10;99.90
17385;DHT22;8810;48.680;8.894;2022-12-07T00:25:18;3.10;99.90
17385;DHT22;8810;48.680;8.894;2022-12-07T00:27:45;3.10;99.90
17385;DHT22;8810;48.680;8.894;2022-12-07T00:30:12;3.00;99.90
17385;DHT22;8810;48.680;8.894;2022-12-07T00:32:38;3.00;99.90
17385;DHT22;8810;48.680;8.894;2022-12-07T00:35:06;3.00;99.90
17385;DHT22;8810;48.680;8.894;2022-12-07T00:37:32;3.00;99.90
17385;DHT22;8810;48.680;8.894;2022-12-07T00:39:59;3.00;99.90
17385;DHT22;8810;48.680;8.894;2022-12-07T00:42:27;3.00;99.90
17385;DHT22;8810;48.680;8.894;2022-12-07T00:44:54;3.10;99.90
17385;DHT22;8810;48.680;8.894;2022-12-07T00:47:21;3.00;99.90
17385;DHT22;8810;48.680;8.894;2022-12-07T00:49:48;3.00;99.90
17385;DHT22;8810;48.680;8.894;2022-12-07T00:52:15;3.10;99.90
17385;DHT22;8810;48.680;8.894;2022-12-07T00:54:41;3.10;99.90
17385;DHT22;8810;48.680;8.894;2022-12-07T00:57:08;3.10;99.90
17385;DHT22;8810;48.680;8.894;2022-12-07T00:59:36;3.10;99.90
17385;DHT22;8810;48.680;8.894;2022-12-07T01:02:03;3.10;99.90
17385;DHT22;8810;48.680;8.894;2022-12-07T01:04:30;3.10;99.90
17385;DHT22;8810;48.680;8.894;2022-12-07T01:07:01;3.20;99.90
17385;DHT22;8810;48.680;8.894;2022-12-07T01:09:27;3.20;99.90
17385;DHT22;8810;48.680;8.894;2022-12-07T01:11:54;3.20;99.90
17385;DHT22;8810;48.680;8.894;2022-12-07T01:14:21;3.20;99.90
17385;DHT22;8810;48.680;8.894;2022-12-07T01:16:49;3.20;99.90
17385;DHT22;8810;48.680;8.894;2022-12-07T01:19:16;3.20;99.90
17385;DHT22;8810;48.680;8.894;2022-12-07T01:21:45;3.20;99.90
17385;DHT22;8810;48.680;8.894;2022-12-07T01:24:12;3.10;99.90
17385;DHT22;8810;48.680;8.894;2022-12-07T01:26:39;3.10;99.90
17385;DHT22;8810;48.680;8.894;2022-12-07T01:29:06;3.10;99.90
17385;DHT22;8810;48.680;8.894;2022-12-07T01:31:33;3.10;99.90
17385;DHT22;8810;48.680;8.894;2022-12-07T01:34:01;3.10;99.90
17385;DHT22;8810;48.680;8.894;2022-12-07T01:36:29;3.10;99.90
17385;DHT22;8810;48.680;8.894;2022-12-07T01:38:58;3.10;99.90
17385;DHT22;8810;48.680;8.894;2022-12-07T01:41:27;3.10;99.90
17385;DHT22;8810;48.680;8.894;2022-12-07T01:44:14;3.10;99.90
17385;DHT22;8810;48.680;8.894;2022-12-07T01:46:42;3.10;99.90
17385;DHT22;8810;48.680;8.894;2022-12-07T01:49:16;3.10;99.90
17385;DHT22;8810;48.680;8.894;2022-12-07T01:51:45;3.00;99.90
17385;DHT22;8810;48.680;8.894;2022-12-07T01:54:14;3.00;99.90
17385;DHT22;8810;48.680;8.894;2022-12-07T01:56:42;3.00;99.90
17385;DHT22;8810;48.680;8.894;2022-12-07T01:59:10;3.00;99.90
17385;DHT22;8810;48.680;8.894;2022-12-07T02:01:37;3.00;99.90
17385;DHT22;8810;48.680;8.894;2022-12-07T02:04:04;3.00;99.90
17385;DHT22;8810;48.680;8.894;2022-12-07T02:06:35;2.90;99.90
17385;DHT22;8810;48.680;8.894;2022-12-07T02:09:03;2.90;99.90
17385;DHT22;8810;48.680;8.894;2022-12-07T02:11:30;2.90;99.90
17385;DHT22;8810;48.680;8.894;2022-12-07T02:13:57;2.90;99.90
17385;DHT22;8810;48.680;8.894;2022-12-07T02:16:30;2.90;99.90
17385;DHT22;8810;48.680;8.894;2022-12-07T02:19:14;2.90;99.90
17385;DHT22;8810;48.680;8.894;2022-12-07T02:21:55;2.90;99.90
17385;DHT22;8810;48.680;8.894;2022-12-07T02:24:36;2.90;99.90
17385;DHT22;8810;48.680;8.894;2022-12-07T02:27:34;2.90;99.90
17385;DHT22;8810;48.680;8.894;2022-12-07T02:30:05;2.90;99.90
17385;DHT22;8810;48.680;8.894;2022-12-07T02:32:44;2.90;99.90
17385;DHT22;8810;48.680;8.894;2022-12-07T02:35:17;2.90;99.90
17385;DHT22;8810;48.680;8.894;2022-12-07T02:37:50;2.90;99.90
17385;DHT22;8810;48.680;8.894;2022-12-07T02:40:23;2.90;99.90
17385;DHT22;8810;48.680;8.894;2022-12-07T02:42:57;2.90;99.90
17385;DHT22;8810;48.680;8.894;2022-12-07T02:45:27;2.90;99.90
17385;DHT22;8810;48.680;8.894;2022-12-07T02:47:58;2.90;99.90
17385;DHT22;8810;48.680;8.894;2022-12-07T02:50:26;2.90;99.90
17385;DHT22;8810;48.680;8.894;2022-12-07T02:52:53;2.90;99.90
17385;DHT22;8810;48.680;8.894;2022-12-07T02:55:27;2.90;99.90
17385;DHT22;8810;48.680;8.894;2022-12-07T02:58:14;2.90;99.90
17385;DHT22;8810;48.680;8.894;2022-12-07T03:00:52;2.90;99.90
17385;DHT22;8810;48.680;8.894;2022-12-07T03:03:22;2.80;99.90
17385;DHT22;8810;48.680;8.894;2022-12-07T03:05:59;2.80;99.90
17385;DHT22;8810;48.680;8.894;2022-12-07T03:08:34;2.80;99.90
17385;DHT22;8810;48.680;8.894;2022-12-07T03:11:05;2.80;99.90
17385;DHT22;8810;48.680;8.894;2022-12-07T03:13:37;2.80;99.90
17385;DHT22;8810;48.680;8.894;2022-12-07T03:16:14;2.80;99.90
17385;DHT22;8810;48.680;8.894;2022-12-07T03:18:45;2.70;99.90
17385;DHT22;8810;48.680;8.894;2022-12-07T03:21:16;2.70;99.90
17385;DHT22;8810;48.680;8.894;2022-12-07T03:23:47;2.70;99.90
17385;DHT22;8810;48.680;8.894;2022-12-07T03:26:16;2.70;99.90
17385;DHT22;8810;48.680;8.894;2022-12-07T03:28:48;2.70;99.90
17385;DHT22;8810;48.680;8.894;2022-12-07T03:31:21;2.70;99.90
17385;DHT22;8810;48.680;8.894;2022-12-07T03:33:53;2.70;99.90
17385;DHT22;8810;48.680;8.894;2022-12-07T03:36:25;2.70;99.90
17385;DHT22;8810;48.680;8.894;2022-12-07T03:38:58;2.70;99.90
17385;DHT22;8810;48.680;8.894;2022-12-07T03:41:29;2.70;99.90
17385;DHT22;8810;48.680;8.894;2022-12-07T03:43:57;2.60;99.90
17385;DHT22;8810;48.680;8.894;2022-12-07T03:46:31;2.60;99.90
17385;DHT22;8810;48.680;8.894;2022-12-07T03:49:07;2.70;99.90
17385;DHT22;8810;48.680;8.894;2022-12-07T03:51:40;2.70;99.90
17385;DHT22;8810;48.680;8.894;2022-12-07T03:54:14;2.70;99.90
17385;DHT22;8810;48.680;8.894;2022-12-07T03:56:44;2.60;99.90
17385;DHT22;8810;48.680;8.894;2022-12-07T03:59:11;2.60;99.90
17385;DHT22;8810;48.680;8.894;2022-12-07T04:01:43;2.60;99.90
17385;DHT22;8810;48.680;8.894;2022-12-07T04:04:10;2.60;99.90
17385;DHT22;8810;48.680;8.894;2022-12-07T04:06:38;2.60;99.90
17385;DHT22;8810;48.680;8.894;2022-12-07T04:09:05;2.60;99.90
17385;DHT22;8810;48.680;8.894;2022-12-07T04:11:32;2.60;99.90
17385;DHT22;8810;48.680;8.894;2022-12-07T04:13:59;2.50;99.90
17385;DHT22;8810;48.680;8.894;2022-12-07T04:16:45;2.50;99.90
17385;DHT22;8810;48.680;8.894;2022-12-07T04:19:12;2.50;99.90
17385;DHT22;8810;48.680;8.894;2022-12-07T04:21:39;2.50;99.90
17385;DHT22;8810;48.680;8.894;2022-12-07T04:24:06;2.40;99.90
17385;DHT22;8810;48.680;8.894;2022-12-07T04:26:33;2.40;99.90
17385;DHT22;8810;48.680;8.894;2022-12-07T04:28:59;2.50;99.90
17385;DHT22;8810;48.680;8.894;2022-12-07T04:31:26;2.50;99.90
17385;DHT22;8810;48.680;8.894;2022-12-07T04:33:54;2.50;99.90
17385;DHT22;8810;48.680;8.894;2022-12-07T04:36:21;2.50;99.90
17385;DHT22;8810;48.680;8.894;2022-12-07T04:38:48;2.50;99.90
17385;DHT22;8810;48.680;8.894;2022-12-07T04:41:15;2.50;99.90
17385;DHT22;8810;48.680;8.894;2022-12-07T04:43:42;2.50;99.90
17385;DHT22;8810;48.680;8.894;2022-12-07T04:46:12;2.50;99.90
17385;DHT22;8810;48.680;8.894;2022-12-07T04:48:38;2.50;99.90
17385;DHT22;8810;48.680;8.894;2022-12-07T04:51:07;2.50;99.90
17385;DHT22;8810;48.680;8.894;2022-12-07T04:53:33;2.50;99.90
17385;DHT22;8810;48.680;8.894;2022-12-07T04:56:00;2.40;99.90
17385;DHT22;8810;48.680;8.894;2022-12-07T04:58:27;2.40;99.90
17385;DHT22;8810;48.680;8.894;2022-12-07T05:00:54;2.40;99.90
17385;DHT22;8810;48.680;8.894;2022-12-07T05:03:21;2.30;99.90
17385;DHT22;8810;48.680;8.894;2022-12-07T05:05:48;2.30;99.90
17385;DHT22;8810;48.680;8.894;2022-12-07T05:08:16;2.20;99.90
17385;DHT22;8810;48.680;8.894;2022-12-07T05:10:43;2.10;99.90
17385;DHT22;8810;48.680;8.894;2022-12-07T05:13:10;2.10;99.90
17385;DHT22;8810;48.680;8.894;2022-12-07T05:15:37;2.00;99.90
17385;DHT22;8810;48.680;8.894;2022-12-07T05:18:04;2.00;99.90
17385;DHT22;8810;48.680;8.894;2022-12-07T05:20:31;1.90;99.90
17385;DHT22;8810;48.680;8.894;2022-12-07T05:22:58;1.90;99.90
17385;DHT22;8810;48.680;8.894;2022-12-07T05:25:26;1.90;99.90
17385;DHT22;8810;48.680;8.894;2022-12-07T05:27:54;1.80;99.90
17385;DHT22;8810;48.680;8.894;2022-12-07T05:30:22;1.80;99.90
17385;DHT22;8810;48.680;8.894;2022-12-07T05:32:49;1.70;99.90
17385;DHT22;8810;48.680;8.894;2022-12-07T05:35:16;1.70;99.90
17385;DHT22;8810;48.680;8.894;2022-12-07T05:37:43;1.60;99.90
17385;DHT22;8810;48.680;8.894;2022-12-07T05:40:12;1.50;99.90
17385;DHT22;8810;48.680;8.894;2022-12-07T05:42:40;1.50;99.90
17385;DHT22;8810;48.680;8.894;2022-12-07T05:45:09;1.40;99.90
17385;DHT22;8810;48.680;8.894;2022-12-07T05:47:36;1.40;99.90
17385;DHT22;8810;48.680;8.894;2022-12-07T05:50:04;1.30;99.90
17385;DHT22;8810;48.680;8.894;2022-12-07T05:52:30;1.30;99.90
17385;DHT22;8810;48.680;8.894;2022-12-07T05:54:57;1.20;99.90
17385;DHT22;8810;48.680;8.894;2022-12-07T05:57:24;1.10;99.90
17385;DHT22;8810;48.680;8.894;2022-12-07T05:59:52;1.10;99.90
17385;DHT22;8810;48.680;8.894;2022-12-07T06:02:18;1.00;99.90
17385;DHT22;8810;48.680;8.894;2022-12-07T06:04:46;1.00;99.90
17385;DHT22;8810;48.680;8.894;2022-12-07T06:07:14;1.00;99.90
17385;DHT22;8810;48.680;8.894;2022-12-07T06:09:42;0.90;99.90
17385;DHT22;8810;48.680;8.894;2022-12-07T06:12:10;0.90;99.90
17385;DHT22;8810;48.680;8.894;2022-12-07T06:14:55;0.90;99.90
17385;DHT22;8810;48.680;8.894;2022-12-07T06:17:23;0.90;99.90
17385;DHT22;8810;48.680;8.894;2022-12-07T06:19:50;0.90;99.90
17385;DHT22;8810;48.680;8.894;2022-12-07T06:22:17;0.90;99.90
17385;DHT22;8810;48.680;8.894;2022-12-07T06:24:44;0.90;99.90
17385;DHT22;8810;48.680;8.894;2022-12-07T06:27:11;0.80;99.90
17385;DHT22;8810;48.680;8.894;2022-12-07T06:29:38;0.80;99.90
17385;DHT22;8810;48.680;8.894;2022-12-07T06:32:06;0.90;99.90
17385;DHT22;8810;48.680;8.894;2022-12-07T06:34:33;0.80;99.90
17385;DHT22;8810;48.680;8.894;2022-12-07T06:37:00;0.90;99.90
17385;DHT22;8810;48.680;8.894;2022-12-07T06:39:28;0.90;99.90
17385;DHT22;8810;48.680;8.894;2022-12-07T06:41:55;0.90;99.90
17385;DHT22;8810;48.680;8.894;2022-12-07T06:44:22;0.90;99.90
17385;DHT22;8810;48.680;8.894;2022-12-07T06:46:50;0.90;99.90
17385;DHT22;8810;48.680;8.894;2022-12-07T06:49:18;0.90;99.90
17385;DHT22;8810;48.680;8.894;2022-12-07T06:51:45;0.80;99.90
17385;DHT22;8810;48.680;8.894;2022-12-07T06:54:13;0.80;99.90
17385;DHT22;8810;48.680;8.894;2022-12-07T06:56:40;0.80;99.90
17385;DHT22;8810;48.680;8.894;2022-12-07T06:59:07;0.80;99.90
17385;DHT22;8810;48.680;8.894;2022-12-07T07:01:35;0.90;99.90
17385;DHT22;8810;48.680;8.894;2022-12-07T07:04:02;0.90;99.90
17385;DHT22;8810;48.680;8.894;2022-12-07T07:06:31;1.00;99.90
17385;DHT22;8810;48.680;8.894;2022-12-07T07:08:58;1.00;99.90
17385;DHT22;8810;48.680;8.894;2022-12-07T07:11:24;1.00;99.90
17385;DHT22;8810;48.680;8.894;2022-12-07T07:13:51;1.00;99.90
17385;DHT22;8810;48.680;8.894;2022-12-07T07:16:19;1.00;99.90
17385;DHT22;8810;48.680;8.894;2022-12-07T07:18:46;1.00;99.90
17385;DHT22;8810;48.680;8.894;2022-12-07T07:21:12;1.00;99.90
17385;DHT22;8810;48.680;8.894;2022-12-07T07:23:40;1.00;99.90
17385;DHT22;8810;48.680;8.894;2022-12-07T07:26:07;1.00;99.90
17385;DHT22;8810;48.680;8.894;2022-12-07T07:28:34;1.00;99.90
17385;DHT22;8810;48.680;8.894;2022-12-07T07:31:01;1.10;99.90
17385;DHT22;8810;48.680;8.894;2022-12-07T07:33:28;1.10;99.90
17385;DHT22;8810;48.680;8.894;2022-12-07T07:35:55;1.10;99.90
17385;DHT22;8810;48.680;8.894;2022-12-07T07:38:21;1.10;99.90
17385;DHT22;8810;48.680;8.894;2022-12-07T07:40:50;1.10;99.90
17385;DHT22;8810;48.680;8.894;2022-12-07T07:43:16;1.10;99.90
17385;DHT22;8810;48.680;8.894;2022-12-07T07:45:44;1.10;99.90
17385;DHT22;8810;48.680;8.894;2022-12-07T07:48:11;1.10;99.90
17385;DHT22;8810;48.680;8.894;2022-12-07T07:50:38;1.10;99.90
17385;DHT22;8810;48.680;8.894;2022-12-07T07:53:04;1.20;99.90
17385;DHT22;8810;48.680;8.894;2022-12-07T07:55:31;1.20;99.90
17385;DHT22;8810;48.680;8.894;2022-12-07T07:57:59;1.20;99.90
17385;DHT22;8810;48.680;8.894;2022-12-07T08:00:26;1.30;99.90
17385;DHT22;8810;48.680;8.894;2022-12-07T08:02:53;1.30;99.90
17385;DHT22;8810;48.680;8.894;2022-12-07T08:05:20;1.30;99.90
17385;DHT22;8810;48.680;8.894;2022-12-07T08:07:47;1.40;99.90
17385;DHT22;8810;48.680;8.894;2022-12-07T08:10:14;1.40;99.90
17385;DHT22;8810;48.680;8.894;2022-12-07T08:12:42;1.40;99.90
17385;DHT22;8810;48.680;8.894;2022-12-07T08:15:25;1.40;99.90
17385;DHT22;8810;48.680;8.894;2022-12-07T08:17:51;1.50;99.90
17385;DHT22;8810;48.680;8.894;2022-12-07T08:20:19;1.50;99.90
17385;DHT22;8810;48.680;8.894;2022-12-07T08:22:45;1.50;99.90
17385;DHT22;8810;48.680;8.894;2022-12-07T08:25:12;1.60;99.90
17385;DHT22;8810;48.680;8.894;2022-12-07T08:27:39;1.60;99.90
17385;DHT22;8810;48.680;8.894;2022-12-07T08:30:07;1.60;99.90
17385;DHT22;8810;48.680;8.894;2022-12-07T08:32:35;1.70;99.90
17385;DHT22;8810;48.680;8.894;2022-12-07T08:35:02;1.70;99.90
17385;DHT22;8810;48.680;8.894;2022-12-07T08:37:29;1.80;99.90
17385;DHT22;8810;48.680;8.894;2022-12-07T08:39:56;1.80;99.90
17385;DHT22;8810;48.680;8.894;2022-12-07T08:42:23;1.90;99.90
17385;DHT22;8810;48.680;8.894;2022-12-07T08:44:55;1.90;99.90
17385;DHT22;8810;48.680;8.894;2022-12-07T08:47:22;2.00;99.90
17385;DHT22;8810;48.680;8.894;2022-12-07T08:49:51;2.10;99.90
17385;DHT22;8810;48.680;8.894;2022-12-07T08:52:20;2.10;99.90
17385;DHT22;8810;48.680;8.894;2022-12-07T08:54:47;2.20;99.90
17385;DHT22;8810;48.680;8.894;2022-12-07T08:57:14;2.20;99.90
17385;DHT22;8810;48.680;8.894;2022-12-07T08:59:41;2.30;99.90
17385;DHT22;8810;48.680;8.894;2022-12-07T09:02:08;2.30;99.90
17385;DHT22;8810;48.680;8.894;2022-12-07T09:04:34;2.30;99.90
17385;DHT22;8810;48.680;8.894;2022-12-07T09:07:03;2.40;99.90
17385;DHT22;8810;48.680;8.894;2022-12-07T09:09:30;2.50;99.90
17385;DHT22;8810;48.680;8.894;2022-12-07T09:11:57;2.50;99.90
17385;DHT22;8810;48.680;8.894;2022-12-07T09:14:24;2.60;99.90
17385;DHT22;8810;48.680;8.894;2022-12-07T09:16:50;2.60;99.90
17385;DHT22;8810;48.680;8.894;2022-12-07T09:19:17;2.70;99.90
17385;DHT22;8810;48.680;8.894;2022-12-07T09:21:44;2.70;99.90
17385;DHT22;8810;48.680;8.894;2022-12-07T09:24:13;2.70;99.90
17385;DHT22;8810;48.680;8.894;2022-12-07T09:26:40;2.80;99.90
17385;DHT22;8810;48.680;8.894;2022-12-07T09:29:06;2.80;99.90
17385;DHT22;8810;48.680;8.894;2022-12-07T09:31:36;2.80;99.90
17385;DHT22;8810;48.680;8.894;2022-12-07T09:34:04;2.80;99.90
17385;DHT22;8810;48.680;8.894;2022-12-07T09:36:31;2.90;99.90
17385;DHT22;8810;48.680;8.894;2022-12-07T09:38:58;2.90;99.90
17385;DHT22;8810;48.680;8.894;2022-12-07T09:41:27;3.00;99.90
17385;DHT22;8810;48.680;8.894;2022-12-07T09:44:03;3.00;99.90
17385;DHT22;8810;48.680;8.894;2022-12-07T09:46:34;3.00;99.90
17385;DHT22;8810;48.680;8.894;2022-12-07T09:49:02;3.10;99.90
17385;DHT22;8810;48.680;8.894;2022-12-07T09:51:29;3.10;99.90
17385;DHT22;8810;48.680;8.894;2022-12-07T09:53:58;3.20;99.90
17385;DHT22;8810;48.680;8.894;2022-12-07T09:56:29;3.30;99.90
17385;DHT22;8810;48.680;8.894;2022-12-07T09:58:59;3.40;99.90
17385;DHT22;8810;48.680;8.894;2022-12-07T10:01:29;3.50;99.90
17385;DHT22;8810;48.680;8.894;2022-12-07T10:04:05;3.50;99.90
17385;DHT22;8810;48.680;8.894;2022-12-07T10:06:32;3.60;99.90
17385;DHT22;8810;48.680;8.894;2022-12-07T10:08:59;3.70;99.90
17385;DHT22;8810;48.680;8.894;2022-12-07T10:11:27;3.80;99.90
17385;DHT22;8810;48.680;8.894;2022-12-07T10:13:54;3.80;99.90
17385;DHT22;8810;48.680;8.894;2022-12-07T10:16:37;3.80;99.90
17385;DHT22;8810;48.680;8.894;2022-12-07T10:19:21;3.80;99.90
17385;DHT22;8810;48.680;8.894;2022-12-07T10:22:09;3.80;99.90
17385;DHT22;8810;48.680;8.894;2022-12-07T10:24:37;3.90;99.90
17385;DHT22;8810;48.680;8.894;2022-12-07T10:27:18;3.80;99.90
17385;DHT22;8810;48.680;8.894;2022-12-07T10:29:48;3.80;99.90
17385;DHT22;8810;48.680;8.894;2022-12-07T10:32:29;3.80;99.90
17385;DHT22;8810;48.680;8.894;2022-12-07T10:35:19;3.80;99.90
17385;DHT22;8810;48.680;8.894;2022-12-07T10:37:47;3.90;99.90
17385;DHT22;8810;48.680;8.894;2022-12-07T10:40:31;3.90;99.90
17385;DHT22;8810;48.680;8.894;2022-12-07T10:43:05;3.90;99.90
17385;DHT22;8810;48.680;8.894;2022-12-07T10:45:34;3.90;99.90
17385;DHT22;8810;48.680;8.894;2022-12-07T10:48:07;3.90;99.90
17385;DHT22;8810;48.680;8.894;2022-12-07T10:50:51;4.00;99.90
17385;DHT22;8810;48.680;8.894;2022-12-07T10:53:37;4.10;99.90
17385;DHT22;8810;48.680;8.894;2022-12-07T10:56:29;4.20;99.90
17385;DHT22;8810;48.680;8.894;2022-12-07T10:59:19;4.20;99.90
17385;DHT22;8810;48.680;8.894;2022-12-07T11:01:54;4.10;99.90
17385;DHT22;8810;48.680;8.894;2022-12-07T11:04:30;4.10;99.90
17385;DHT22;8810;48.680;8.894;2022-12-07T11:07:05;4.10;99.90
17385;DHT22;8810;48.680;8.894;2022-12-07T11:10:05;4.10;99.90
17385;DHT22;8810;48.680;8.894;2022-12-07T11:15:15;4.10;99.90
17385;DHT22;8810;48.680;8.894;2022-12-07T11:17:50;4.20;99.90
17385;DHT22;8810;48.680;8.894;2022-12-07T11:20:36;4.20;99.90
17385;DHT22;8810;48.680;8.894;2022-12-07T11:23:18;4.20;99.90
17385;DHT22;8810;48.680;8.894;2022-12-07T11:25:53;4.10;99.90
17385;DHT22;8810;48.680;8.894;2022-12-07T11:28:34;4.10;99.90
17385;DHT22;8810;48.680;8.894;2022-12-07T11:31:12;4.10;99.90
17385;DHT22;8810;48.680;8.894;2022-12-07T11:33:46;4.20;99.90
17385;DHT22;8810;48.680;8.894;2022-12-07T11:36:33;4.20;99.90
17385;DHT22;8810;48.680;8.894;2022-12-07T11:39:04;4.30;99.90
17385;DHT22;8810;48.680;8.894;2022-12-07T11:41:38;4.40;99.90
17385;DHT22;8810;48.680;8.894;2022-12-07T11:44:08;4.40;99.90
17385;DHT22;8810;48.680;8.894;2022-12-07T11:46:47;4.50;99.90
17385;DHT22;8810;48.680;8.894;2022-12-07T11:49:21;4.50;99.90
17385;DHT22;8810;48.680;8.894;2022-12-07T11:51:52;4.50;99.90
17385;DHT22;8810;48.680;8.894;2022-12-07T11:54:25;4.60;99.90
17385;DHT22;8810;48.680;8.894;2022-12-07T11:56:56;4.60;99.90
17385;DHT22;8810;48.680;8.894;2022-12-07T11:59:31;4.60;99.90
17385;DHT22;8810;48.680;8.894;2022-12-07T12:02:11;4.60;99.90
17385;DHT22;8810;48.680;8.894;2022-12-07T12:04:47;4.60;99.90
17385;DHT22;8810;48.680;8.894;2022-12-07T12:07:19;4.60;99.90
17385;DHT22;8810;48.680;8.894;2022-12-07T12:09:51;4.60;99.90
17385;DHT22;8810;48.680;8.894;2022-12-07T12:12:39;4.60;99.90
17385;DHT22;8810;48.680;8.894;2022-12-07T12:15:20;4.60;99.90
17385;DHT22;8810;48.680;8.894;2022-12-07T12:20:49;4.60;99.90
17385;DHT22;8810;48.680;8.894;2022-12-07T12:23:19;4.60;99.90
17385;DHT22;8810;48.680;8.894;2022-12-07T12:25:48;4.60;99.90
17385;DHT22;8810;48.680;8.894;2022-12-07T12:28:21;4.60;99.90
17385;DHT22;8810;48.680;8.894;2022-12-07T12:31:10;4.60;99.90
17385;DHT22;8810;48.680;8.894;2022-12-07T12:33:43;4.60;99.90
17385;DHT22;8810;48.680;8.894;2022-12-07T12:36:43;4.60;99.90
17385;DHT22;8810;48.680;8.894;2022-12-07T12:39:12;4.60;99.90
17385;DHT22;8810;48.680;8.894;2022-12-07T12:42:01;4.60;99.90
17385;DHT22;8810;48.680;8.894;2022-12-07T12:44:41;4.60;99.90
17385;DHT22;8810;48.680;8.894;2022-12-07T12:50:17;4.60;99.90
17385;DHT22;8810;48.680;8.894;2022-12-07T12:52:55;4.50;99.90
17385;DHT22;8810;48.680;8.894;2022-12-07T12:58:46;4.50;99.90
17385;DHT22;8810;48.680;8.894;2022-12-07T13:01:44;4.60;99.90
17385;DHT22;8810;48.680;8.894;2022-12-07T13:04:40;4.60;99.90
17385;DHT22;8810;48.680;8.894;2022-12-07T13:10:28;4.60;99.90
17385;DHT22;8810;48.680;8.894;2022-12-07T13:12:57;4.70;99.90
17385;DHT22;8810;48.680;8.894;2022-12-07T13:15:37;4.60;99.90
17385;DHT22;8810;48.680;8.894;2022-12-07T13:18:23;4.60;99.90
17385;DHT22;8810;48.680;8.894;2022-12-07T13:20:55;4.60;99.90
17385;DHT22;8810;48.680;8.894;2022-12-07T13:23:30;4.60;99.90
17385;DHT22;8810;48.680;8.894;2022-12-07T13:26:18;4.60;99.90
17385;DHT22;8810;48.680;8.894;2022-12-07T13:28:46;4.60;99.90
17385;DHT22;8810;48.680;8.894;2022-12-07T13:31:25;4.60;99.90
17385;DHT22;8810;48.680;8.894;2022-12-07T13:33:57;4.60;99.90
17385;DHT22;8810;48.680;8.894;2022-12-07T13:36:26;4.70;99.90
17385;DHT22;8810;48.680;8.894;2022-12-07T13:38:56;4.60;99.90
17385;DHT22;8810;48.680;8.894;2022-12-07T13:41:25;4.60;99.90
17385;DHT22;8810;48.680;8.894;2022-12-07T13:43:58;4.60;99.90
17385;DHT22;8810;48.680;8.894;2022-12-07T13:46:33;4.70;99.90
17385;DHT22;8810;48.680;8.894;2022-12-07T13:49:02;4.70;99.90
17385;DHT22;8810;48.680;8.894;2022-12-07T13:51:34;4.70;99.90
17385;DHT22;8810;48.680;8.894;2022-12-07T13:54:09;4.70;99.90
17385;DHT22;8810;48.680;8.894;2022-12-07T13:56:38;4.70;99.90
17385;DHT22;8810;48.680;8.894;2022-12-07T13:59:12;4.70;99.90
17385;DHT22;8810;48.680;8.894;2022-12-07T14:01:40;4.70;99.90
17385;DHT22;8810;48.680;8.894;2022-12-07T14:04:31;4.70;99.90
17385;DHT22;8810;48.680;8.894;2022-12-07T14:06:59;4.70;99.90
17385;DHT22;8810;48.680;8.894;2022-12-07T14:09:28;4.60;99.90
17385;DHT22;8810;48.680;8.894;2022-12-07T14:11:58;4.60;99.90
17385;DHT22;8810;48.680;8.894;2022-12-07T14:14:27;4.70;99.90
17385;DHT22;8810;48.680;8.894;2022-12-07T14:16:57;4.60;99.90
17385;DHT22;8810;48.680;8.894;2022-12-07T14:19:45;4.60;99.90
17385;DHT22;8810;48.680;8.894;2022-12-07T14:22:22;4.60;99.90
17385;DHT22;8810;48.680;8.894;2022-12-07T14:24:49;4.60;99.90
17385;DHT22;8810;48.680;8.894;2022-12-07T14:27:19;4.60;99.90
17385;DHT22;8810;48.680;8.894;2022-12-07T14:29:46;4.60;99.90
17385;DHT22;8810;48.680;8.894;2022-12-07T14:32:25;4.60;99.90
17385;DHT22;8810;48.680;8.894;2022-12-07T14:35:02;4.60;99.90
17385;DHT22;8810;48.680;8.894;2022-12-07T14:37:30;4.60;99.90
17385;DHT22;8810;48.680;8.894;2022-12-07T14:39:57;4.50;99.90
17385;DHT22;8810;48.680;8.894;2022-12-07T14:42:28;4.50;99.90
17385;DHT22;8810;48.680;8.894;2022-12-07T14:44:57;4.50;99.90
17385;DHT22;8810;48.680;8.894;2022-12-07T14:47:25;4.40;99.90
17385;DHT22;8810;48.680;8.894;2022-12-07T14:49:52;4.40;99.90
17385;DHT22;8810;48.680;8.894;2022-12-07T14:52:21;4.30;99.90
17385;DHT22;8810;48.680;8.894;2022-12-07T14:54:48;4.30;99.90
17385;DHT22;8810;48.680;8.894;2022-12-07T14:57:15;4.20;99.90
17385;DHT22;8810;48.680;8.894;2022-12-07T14:59:43;4.20;99.90
17385;DHT22;8810;48.680;8.894;2022-12-07T15:02:14;4.10;99.90
17385;DHT22;8810;48.680;8.894;2022-12-07T15:04:41;4.10;99.90
17385;DHT22;8810;48.680;8.894;2022-12-07T15:07:12;4.00;99.90
17385;DHT22;8810;48.680;8.894;2022-12-07T15:09:41;4.00;99.90
17385;DHT22;8810;48.680;8.894;2022-12-07T15:12:08;4.00;99.90
17385;DHT22;8810;48.680;8.894;2022-12-07T15:14:35;4.00;99.90
17385;DHT22;8810;48.680;8.894;2022-12-07T15:17:03;4.00;99.90
17385;DHT22;8810;48.680;8.894;2022-12-07T15:19:30;4.00;99.90
17385;DHT22;8810;48.680;8.894;2022-12-07T15:21:57;4.10;99.90
17385;DHT22;8810;48.680;8.894;2022-12-07T15:24:25;4.00;99.90
17385;DHT22;8810;48.680;8.894;2022-12-07T15:26:52;4.10;99.90
17385;DHT22;8810;48.680;8.894;2022-12-07T15:29:19;4.10;99.90
17385;DHT22;8810;48.680;8.894;2022-12-07T15:31:48;4.10;99.90
17385;DHT22;8810;48.680;8.894;2022-12-07T15:34:16;4.10;99.90
17385;DHT22;8810;48.680;8.894;2022-12-07T15:36:43;4.00;99.90
17385;DHT22;8810;48.680;8.894;2022-12-07T15:39:10;4.00;99.90
17385;DHT22;8810;48.680;8.894;2022-12-07T15:41:37;4.00;99.90
17385;DHT22;8810;48.680;8.894;2022-12-07T15:44:04;4.00;99.90
17385;DHT22;8810;48.680;8.894;2022-12-07T15:46:48;4.00;99.90
17385;DHT22;8810;48.680;8.894;2022-12-07T15:49:18;3.90;99.90
17385;DHT22;8810;48.680;8.894;2022-12-07T15:51:45;3.90;99.90
17385;DHT22;8810;48.680;8.894;2022-12-07T15:54:15;3.90;99.90
17385;DHT22;8810;48.680;8.894;2022-12-07T15:56:44;3.90;99.90
17385;DHT22;8810;48.680;8.894;2022-12-07T15:59:11;3.80;99.90
17385;DHT22;8810;48.680;8.894;2022-12-07T16:01:37;3.80;99.90
17385;DHT22;8810;48.680;8.894;2022-12-07T16:04:04;3.80;99.90
17385;DHT22;8810;48.680;8.894;2022-12-07T16:06:32;3.80;99.90
17385;DHT22;8810;48.680;8.894;2022-12-07T16:08:59;3.70;99.90
17385;DHT22;8810;48.680;8.894;2022-12-07T16:11:26;3.70;99.90
17385;DHT22;8810;48.680;8.894;2022-12-07T16:13:53;3.70;99.90
17385;DHT22;8810;48.680;8.894;2022-12-07T16:16:20;3.80;99.90
17385;DHT22;8810;48.680;8.894;2022-12-07T16:18:49;3.70;99.90
17385;DHT22;8810;48.680;8.894;2022-12-07T16:21:17;3.70;99.90
17385;DHT22;8810;48.680;8.894;2022-12-07T16:23:45;3.70;99.90
17385;DHT22;8810;48.680;8.894;2022-12-07T16:26:13;3.60;99.90
17385;DHT22;8810;48.680;8.894;2022-12-07T16:28:41;3.60;99.90
17385;DHT22;8810;48.680;8.894;2022-12-07T16:31:10;3.50;99.90
17385;DHT22;8810;48.680;8.894;2022-12-07T16:33:39;3.50;99.90
17385;DHT22;8810;48.680;8.894;2022-12-07T16:36:07;3.50;99.90
17385;DHT22;8810;48.680;8.894;2022-12-07T16:38:35;3.40;99.90